sensor_id;sensor_type;location;lat;lon;timestamp;P1;durP1;ratioP1;P2;durP2;ratioP2
79227;SDS011;68658;46.174;11.254;2023-03-23T00:02:29;18.60;;;6.85;;
79227;SDS011;68658;46.174;11.254;2023-03-23T00:05:00;18.45;;;8.45;;
79227;SDS011;68658;46.174;11.254;2023-03-23T00:07:28;19.65;;;8.48;;
79227;SDS011;68658;46.174;11.254;2023-03-23T00:09:54;17.88;;;7.30;;
79227;SDS011;68658;46.174;11.254;2023-03-23T00:12:21;20.88;;;7.30;;
79227;SDS011;68658;46.174;11.254;2023-03-23T00:14:54;15.43;;;7.07;;
79227;SDS011;68658;46.174;11.254;2023-03-23T00:17:20;17.85;;;7.03;;
79227;SDS011;68658;46.174;11.254;2023-03-23T00:19:46;20.17;;;8.27;;
79227;SDS011;68658;46.174;11.254;2023-03-23T00:22:12;22.58;;;8.25;;
79227;SDS011;68658;46.174;11.254;2023-03-23T00:24:39;20.83;;;8.45;;
79227;SDS011;68658;46.174;11.254;2023-03-23T00:27:05;17.83;;;6.68;;
79227;SDS011;68658;46.174;11.254;2023-03-23T00:29:30;21.55;;;8.85;;
79227;SDS011;68658;46.174;11.254;2023-03-23T00:31:57;23.27;;;9.05;;
79227;SDS011;68658;46.174;11.254;2023-03-23T00:34:22;24.95;;;8.60;;
79227;SDS011;68658;46.174;11.254;2023-03-23T00:36:51;20.55;;;7.70;;
79227;SDS011;68658;46.174;11.254;2023-03-23T00:39:24;27.88;;;9.00;;
79227;SDS011;68658;46.174;11.254;2023-03-23T00:41:51;22.60;;;7.47;;
79227;SDS011;68658;46.174;11.254;2023-03-23T00:44:18;19.42;;;7.78;;
79227;SDS011;68658;46.174;11.254;2023-03-23T00:46:44;24.55;;;8.13;;
79227;SDS011;68658;46.174;11.254;2023-03-23T00:49:14;17.90;;;8.15;;
79227;SDS011;68658;46.174;11.254;2023-03-23T00:51:41;19.02;;;7.53;;
79227;SDS011;68658;46.174;11.254;2023-03-23T00:54:06;22.20;;;8.50;;
79227;SDS011;68658;46.174;11.254;2023-03-23T00:56:32;20.70;;;9.45;;
79227;SDS011;68658;46.174;11.254;2023-03-23T00:58:58;19.58;;;8.82;;
79227;SDS011;68658;46.174;11.254;2023-03-23T01:01:23;22.55;;;9.40;;
79227;SDS011;68658;46.174;11.254;2023-03-23T01:03:48;18.10;;;8.15;;
79227;SDS011;68658;46.174;11.254;2023-03-23T01:06:14;20.35;;;8.45;;
79227;SDS011;68658;46.174;11.254;2023-03-23T01:08:40;20.38;;;8.35;;
79227;SDS011;68658;46.174;11.254;2023-03-23T01:11:10;16.92;;;8.68;;
79227;SDS011;68658;46.174;11.254;2023-03-23T01:13:43;18.13;;;7.35;;
79227;SDS011;68658;46.174;11.254;2023-03-23T01:16:09;17.23;;;7.35;;
79227;SDS011;68658;46.174;11.254;2023-03-23T01:18:36;19.52;;;7.53;;
79227;SDS011;68658;46.174;11.254;2023-03-23T01:21:05;21.80;;;7.45;;
79227;SDS011;68658;46.174;11.254;2023-03-23T01:23:33;25.52;;;8.73;;
79227;SDS011;68658;46.174;11.254;2023-03-23T01:26:02;21.17;;;9.15;;
79227;SDS011;68658;46.174;11.254;2023-03-23T01:28:35;17.67;;;8.48;;
79227;SDS011;68658;46.174;11.254;2023-03-23T01:31:05;22.70;;;9.27;;
79227;SDS011;68658;46.174;11.254;2023-03-23T01:33:33;21.80;;;9.43;;
79227;SDS011;68658;46.174;11.254;2023-03-23T01:36:03;22.38;;;7.80;;
79227;SDS011;68658;46.174;11.254;2023-03-23T01:38:31;17.13;;;8.70;;
79227;SDS011;68658;46.174;11.254;2023-03-23T01:40:56;21.77;;;7.47;;
79227;SDS011;68658;46.174;11.254;2023-03-23T01:43:22;19.75;;;8.02;;
79227;SDS011;68658;46.174;11.254;2023-03-23T01:45:47;19.05;;;8.13;;
79227;SDS011;68658;46.174;11.254;2023-03-23T01:48:23;22.08;;;8.10;;
79227;SDS011;68658;46.174;11.254;2023-03-23T01:53:20;18.92;;;8.25;;
79227;SDS011;68658;46.174;11.254;2023-03-23T01:55:47;18.35;;;7.72;;
79227;SDS011;68658;46.174;11.254;2023-03-23T01:58:16;20.13;;;8.18;;
79227;SDS011;68658;46.174;11.254;2023-03-23T02:00:43;18.08;;;7.32;;
79227;SDS011;68658;46.174;11.254;2023-03-23T02:03:09;19.00;;;7.95;;
79227;SDS011;68658;46.174;11.254;2023-03-23T02:05:39;19.02;;;7.88;;
79227;SDS011;68658;46.174;11.254;2023-03-23T02:08:06;18.17;;;7.70;;
79227;SDS011;68658;46.174;11.254;2023-03-23T02:10:34;20.88;;;8.07;;
79227;SDS011;68658;46.174;11.254;2023-03-23T02:13:02;17.48;;;7.45;;
79227;SDS011;68658;46.174;11.254;2023-03-23T02:15:35;19.05;;;8.25;;
79227;SDS011;68658;46.174;11.254;2023-03-23T02:18:21;21.35;;;8.80;;
79227;SDS011;68658;46.174;11.254;2023-03-23T02:21:13;18.13;;;8.43;;
79227;SDS011;68658;46.174;11.254;2023-03-23T02:26:51;20.65;;;9.50;;
79227;SDS011;68658;46.174;11.254;2023-03-23T02:29:32;19.85;;;8.90;;
79227;SDS011;68658;46.174;11.254;2023-03-23T02:34:46;18.20;;;8.68;;
79227;SDS011;68658;46.174;11.254;2023-03-23T02:37:14;20.08;;;7.88;;
79227;SDS011;68658;46.174;11.254;2023-03-23T02:39:49;20.60;;;8.07;;
79227;SDS011;68658;46.174;11.254;2023-03-23T02:42:18;17.38;;;7.20;;
79227;SDS011;68658;46.174;11.254;2023-03-23T02:44:48;23.23;;;8.52;;
79227;SDS011;68658;46.174;11.254;2023-03-23T02:47:16;20.40;;;7.95;;
79227;SDS011;68658;46.174;11.254;2023-03-23T02:52:14;19.70;;;8.80;;
79227;SDS011;68658;46.174;11.254;2023-03-23T02:54:44;19.77;;;9.15;;
79227;SDS011;68658;46.174;11.254;2023-03-23T02:57:12;20.52;;;7.50;;
79227;SDS011;68658;46.174;11.254;2023-03-23T02:59:38;17.93;;;7.67;;
79227;SDS011;68658;46.174;11.254;2023-03-23T03:02:05;18.42;;;6.70;;
79227;SDS011;68658;46.174;11.254;2023-03-23T03:04:35;18.10;;;7.57;;
79227;SDS011;68658;46.174;11.254;2023-03-23T03:09:54;20.90;;;7.93;;
79227;SDS011;68658;46.174;11.254;2023-03-23T03:18:05;19.08;;;8.13;;
79227;SDS011;68658;46.174;11.254;2023-03-23T03:20:37;22.08;;;9.40;;
79227;SDS011;68658;46.174;11.254;2023-03-23T03:23:05;19.00;;;7.90;;
79227;SDS011;68658;46.174;11.254;2023-03-23T03:25:34;19.95;;;8.05;;
79227;SDS011;68658;46.174;11.254;2023-03-23T03:28:00;20.20;;;7.55;;
79227;SDS011;68658;46.174;11.254;2023-03-23T03:30:28;21.85;;;8.40;;
79227;SDS011;68658;46.174;11.254;2023-03-23T03:32:58;19.80;;;8.55;;
79227;SDS011;68658;46.174;11.254;2023-03-23T03:35:28;15.27;;;7.03;;
79227;SDS011;68658;46.174;11.254;2023-03-23T03:37:55;21.85;;;7.80;;
79227;SDS011;68658;46.174;11.254;2023-03-23T03:40:22;20.65;;;8.57;;
79227;SDS011;68658;46.174;11.254;2023-03-23T03:42:48;17.90;;;8.18;;
79227;SDS011;68658;46.174;11.254;2023-03-23T03:45:16;21.90;;;8.05;;
79227;SDS011;68658;46.174;11.254;2023-03-23T03:47:43;20.38;;;8.98;;
79227;SDS011;68658;46.174;11.254;2023-03-23T03:50:09;23.00;;;8.57;;
79227;SDS011;68658;46.174;11.254;2023-03-23T03:52:35;18.58;;;9.07;;
79227;SDS011;68658;46.174;11.254;2023-03-23T03:55:00;20.48;;;7.68;;
79227;SDS011;68658;46.174;11.254;2023-03-23T03:57:26;20.70;;;8.30;;
79227;SDS011;68658;46.174;11.254;2023-03-23T03:59:51;19.95;;;7.82;;
79227;SDS011;68658;46.174;11.254;2023-03-23T04:02:17;20.98;;;8.02;;
79227;SDS011;68658;46.174;11.254;2023-03-23T04:04:47;19.10;;;7.43;;
79227;SDS011;68658;46.174;11.254;2023-03-23T04:07:14;22.27;;;9.02;;
79227;SDS011;68658;46.174;11.254;2023-03-23T04:09:41;19.23;;;8.23;;
79227;SDS011;68658;46.174;11.254;2023-03-23T04:12:11;18.33;;;9.45;;
79227;SDS011;68658;46.174;11.254;2023-03-23T04:14:37;22.08;;;9.27;;
79227;SDS011;68658;46.174;11.254;2023-03-23T04:17:03;20.33;;;7.72;;
79227;SDS011;68658;46.174;11.254;2023-03-23T04:19:28;20.00;;;8.30;;
79227;SDS011;68658;46.174;11.254;2023-03-23T04:21:57;19.63;;;7.63;;
79227;SDS011;68658;46.174;11.254;2023-03-23T04:24:24;24.00;;;8.48;;
79227;SDS011;68658;46.174;11.254;2023-03-23T04:26:49;17.75;;;8.90;;
79227;SDS011;68658;46.174;11.254;2023-03-23T04:29:17;21.45;;;8.82;;
79227;SDS011;68658;46.174;11.254;2023-03-23T04:31:43;21.30;;;8.50;;
79227;SDS011;68658;46.174;11.254;2023-03-23T04:34:10;22.05;;;9.02;;
79227;SDS011;68658;46.174;11.254;2023-03-23T04:36:38;23.88;;;9.50;;
79227;SDS011;68658;46.174;11.254;2023-03-23T04:39:05;21.05;;;8.48;;
79227;SDS011;68658;46.174;11.254;2023-03-23T04:41:34;21.55;;;8.63;;
79227;SDS011;68658;46.174;11.254;2023-03-23T04:44:01;20.13;;;7.85;;
79227;SDS011;68658;46.174;11.254;2023-03-23T04:46:28;20.35;;;8.20;;
79227;SDS011;68658;46.174;11.254;2023-03-23T04:48:53;20.40;;;7.57;;
79227;SDS011;68658;46.174;11.254;2023-03-23T04:51:19;22.95;;;9.73;;
79227;SDS011;68658;46.174;11.254;2023-03-23T04:53:45;19.58;;;8.93;;
79227;SDS011;68658;46.174;11.254;2023-03-23T04:56:10;20.08;;;8.23;;
79227;SDS011;68658;46.174;11.254;2023-03-23T04:58:39;24.60;;;9.25;;
79227;SDS011;68658;46.174;11.254;2023-03-23T05:01:05;21.77;;;8.10;;
79227;SDS011;68658;46.174;11.254;2023-03-23T05:03:31;21.35;;;8.38;;
79227;SDS011;68658;46.174;11.254;2023-03-23T05:05:57;16.48;;;7.63;;
79227;SDS011;68658;46.174;11.254;2023-03-23T05:08:25;20.77;;;8.85;;
79227;SDS011;68658;46.174;11.254;2023-03-23T05:10:55;32.20;;;13.97;;
79227;SDS011;68658;46.174;11.254;2023-03-23T05:13:23;24.80;;;11.68;;
79227;SDS011;68658;46.174;11.254;2023-03-23T05:15:48;23.50;;;10.10;;
79227;SDS011;68658;46.174;11.254;2023-03-23T05:18:14;49.53;;;20.70;;
79227;SDS011;68658;46.174;11.254;2023-03-23T05:20:40;65.82;;;29.42;;
79227;SDS011;68658;46.174;11.254;2023-03-23T05:23:11;43.13;;;20.35;;
79227;SDS011;68658;46.174;11.254;2023-03-23T05:25:37;23.88;;;10.73;;
79227;SDS011;68658;46.174;11.254;2023-03-23T05:28:07;24.77;;;11.18;;
79227;SDS011;68658;46.174;11.254;2023-03-23T05:30:34;21.65;;;9.88;;
79227;SDS011;68658;46.174;11.254;2023-03-23T05:33:00;21.63;;;8.35;;
79227;SDS011;68658;46.174;11.254;2023-03-23T05:35:26;29.90;;;10.27;;
79227;SDS011;68658;46.174;11.254;2023-03-23T05:37:52;19.58;;;7.95;;
79227;SDS011;68658;46.174;11.254;2023-03-23T05:40:18;19.92;;;8.73;;
79227;SDS011;68658;46.174;11.254;2023-03-23T05:42:45;22.95;;;9.55;;
79227;SDS011;68658;46.174;11.254;2023-03-23T05:45:11;19.98;;;9.38;;
79227;SDS011;68658;46.174;11.254;2023-03-23T05:47:37;23.13;;;7.68;;
79227;SDS011;68658;46.174;11.254;2023-03-23T05:50:04;22.33;;;8.85;;
79227;SDS011;68658;46.174;11.254;2023-03-23T05:52:31;21.42;;;8.30;;
79227;SDS011;68658;46.174;11.254;2023-03-23T05:54:58;23.25;;;8.05;;
79227;SDS011;68658;46.174;11.254;2023-03-23T05:57:24;19.13;;;8.13;;
79227;SDS011;68658;46.174;11.254;2023-03-23T05:59:49;20.33;;;8.23;;
79227;SDS011;68658;46.174;11.254;2023-03-23T06:02:15;18.88;;;8.52;;
79227;SDS011;68658;46.174;11.254;2023-03-23T06:04:40;23.02;;;7.55;;
79227;SDS011;68658;46.174;11.254;2023-03-23T06:07:06;18.38;;;6.97;;
79227;SDS011;68658;46.174;11.254;2023-03-23T06:09:32;20.40;;;9.13;;
79227;SDS011;68658;46.174;11.254;2023-03-23T06:11:58;21.95;;;8.43;;
79227;SDS011;68658;46.174;11.254;2023-03-23T06:14:23;23.65;;;8.40;;
79227;SDS011;68658;46.174;11.254;2023-03-23T06:16:49;17.88;;;8.43;;
79227;SDS011;68658;46.174;11.254;2023-03-23T06:19:14;19.23;;;7.15;;
79227;SDS011;68658;46.174;11.254;2023-03-23T06:21:40;21.15;;;7.15;;
79227;SDS011;68658;46.174;11.254;2023-03-23T06:24:06;17.95;;;7.28;;
79227;SDS011;68658;46.174;11.254;2023-03-23T06:26:33;17.17;;;7.47;;
79227;SDS011;68658;46.174;11.254;2023-03-23T06:29:01;19.38;;;8.65;;
79227;SDS011;68658;46.174;11.254;2023-03-23T06:31:28;20.10;;;7.63;;
79227;SDS011;68658;46.174;11.254;2023-03-23T06:33:54;16.33;;;8.07;;
79227;SDS011;68658;46.174;11.254;2023-03-23T06:36:20;19.45;;;9.02;;
79227;SDS011;68658;46.174;11.254;2023-03-23T06:38:45;23.77;;;9.52;;
79227;SDS011;68658;46.174;11.254;2023-03-23T06:41:13;18.88;;;8.38;;
79227;SDS011;68658;46.174;11.254;2023-03-23T06:43:39;15.77;;;6.85;;
79227;SDS011;68658;46.174;11.254;2023-03-23T06:46:07;22.08;;;9.02;;
79227;SDS011;68658;46.174;11.254;2023-03-23T06:48:33;17.90;;;7.40;;
79227;SDS011;68658;46.174;11.254;2023-03-23T06:50:58;19.67;;;7.65;;
79227;SDS011;68658;46.174;11.254;2023-03-23T06:53:24;17.48;;;8.32;;
79227;SDS011;68658;46.174;11.254;2023-03-23T06:55:50;19.23;;;7.82;;
79227;SDS011;68658;46.174;11.254;2023-03-23T06:58:15;17.38;;;7.82;;
79227;SDS011;68658;46.174;11.254;2023-03-23T07:00:41;21.23;;;8.75;;
79227;SDS011;68658;46.174;11.254;2023-03-23T07:03:06;25.92;;;8.77;;
79227;SDS011;68658;46.174;11.254;2023-03-23T07:05:33;22.60;;;8.73;;
79227;SDS011;68658;46.174;11.254;2023-03-23T07:08:00;19.92;;;8.85;;
79227;SDS011;68658;46.174;11.254;2023-03-23T07:10:25;19.15;;;8.02;;
79227;SDS011;68658;46.174;11.254;2023-03-23T07:12:54;21.00;;;8.27;;
79227;SDS011;68658;46.174;11.254;2023-03-23T07:15:19;29.65;;;13.77;;
79227;SDS011;68658;46.174;11.254;2023-03-23T07:17:45;20.60;;;8.05;;
79227;SDS011;68658;46.174;11.254;2023-03-23T07:20:12;21.05;;;9.68;;
79227;SDS011;68658;46.174;11.254;2023-03-23T07:22:38;21.33;;;9.57;;
79227;SDS011;68658;46.174;11.254;2023-03-23T07:25:03;24.52;;;8.45;;
79227;SDS011;68658;46.174;11.254;2023-03-23T07:27:29;21.38;;;8.18;;
79227;SDS011;68658;46.174;11.254;2023-03-23T07:29:55;18.58;;;7.80;;
79227;SDS011;68658;46.174;11.254;2023-03-23T07:32:22;19.42;;;7.82;;
79227;SDS011;68658;46.174;11.254;2023-03-23T07:34:48;20.50;;;7.82;;
79227;SDS011;68658;46.174;11.254;2023-03-23T07:37:13;17.27;;;7.57;;
79227;SDS011;68658;46.174;11.254;2023-03-23T07:39:38;20.67;;;7.85;;
79227;SDS011;68658;46.174;11.254;2023-03-23T07:42:08;19.40;;;7.80;;
79227;SDS011;68658;46.174;11.254;2023-03-23T07:44:34;19.35;;;7.75;;
79227;SDS011;68658;46.174;11.254;2023-03-23T07:46:59;21.52;;;8.32;;
79227;SDS011;68658;46.174;11.254;2023-03-23T07:49:25;16.67;;;7.18;;
79227;SDS011;68658;46.174;11.254;2023-03-23T07:51:51;15.45;;;7.63;;
79227;SDS011;68658;46.174;11.254;2023-03-23T07:54:17;18.42;;;8.57;;
79227;SDS011;68658;46.174;11.254;2023-03-23T07:56:45;20.05;;;7.88;;
79227;SDS011;68658;46.174;11.254;2023-03-23T07:59:11;19.77;;;8.50;;
79227;SDS011;68658;46.174;11.254;2023-03-23T08:01:37;20.02;;;8.48;;
79227;SDS011;68658;46.174;11.254;2023-03-23T08:04:04;19.25;;;7.35;;
79227;SDS011;68658;46.174;11.254;2023-03-23T08:06:31;18.85;;;7.15;;
79227;SDS011;68658;46.174;11.254;2023-03-23T08:09:01;18.63;;;8.02;;
79227;SDS011;68658;46.174;11.254;2023-03-23T08:11:33;19.35;;;8.10;;
79227;SDS011;68658;46.174;11.254;2023-03-23T08:13:59;15.57;;;7.50;;
79227;SDS011;68658;46.174;11.254;2023-03-23T08:16:25;16.88;;;8.07;;
79227;SDS011;68658;46.174;11.254;2023-03-23T08:18:50;18.80;;;7.78;;
79227;SDS011;68658;46.174;11.254;2023-03-23T08:21:16;19.52;;;8.13;;
79227;SDS011;68658;46.174;11.254;2023-03-23T08:23:47;21.02;;;7.97;;
79227;SDS011;68658;46.174;11.254;2023-03-23T08:26:12;18.42;;;7.55;;
79227;SDS011;68658;46.174;11.254;2023-03-23T08:28:40;20.45;;;8.88;;
79227;SDS011;68658;46.174;11.254;2023-03-23T08:31:06;19.33;;;7.65;;
79227;SDS011;68658;46.174;11.254;2023-03-23T08:33:33;18.20;;;8.65;;
79227;SDS011;68658;46.174;11.254;2023-03-23T08:35:59;16.25;;;6.75;;
79227;SDS011;68658;46.174;11.254;2023-03-23T08:38:26;21.38;;;8.43;;
79227;SDS011;68658;46.174;11.254;2023-03-23T08:40:56;18.58;;;8.20;;
79227;SDS011;68658;46.174;11.254;2023-03-23T08:43:23;18.83;;;7.63;;
79227;SDS011;68658;46.174;11.254;2023-03-23T08:45:49;20.40;;;8.88;;
79227;SDS011;68658;46.174;11.254;2023-03-23T08:48:16;19.65;;;8.45;;
79227;SDS011;68658;46.174;11.254;2023-03-23T08:50:42;15.75;;;6.70;;
79227;SDS011;68658;46.174;11.254;2023-03-23T08:53:08;14.10;;;7.25;;
79227;SDS011;68658;46.174;11.254;2023-03-23T08:55:33;21.48;;;7.80;;
79227;SDS011;68658;46.174;11.254;2023-03-23T08:57:59;19.55;;;7.65;;
79227;SDS011;68658;46.174;11.254;2023-03-23T09:00:25;19.58;;;6.88;;
79227;SDS011;68658;46.174;11.254;2023-03-23T09:02:52;17.00;;;7.32;;
79227;SDS011;68658;46.174;11.254;2023-03-23T09:05:20;20.63;;;7.95;;
79227;SDS011;68658;46.174;11.254;2023-03-23T09:07:49;20.50;;;8.40;;
79227;SDS011;68658;46.174;11.254;2023-03-23T09:10:17;20.13;;;7.78;;
79227;SDS011;68658;46.174;11.254;2023-03-23T09:12:43;24.48;;;9.20;;
79227;SDS011;68658;46.174;11.254;2023-03-23T09:15:12;17.00;;;7.05;;
79227;SDS011;68658;46.174;11.254;2023-03-23T09:17:46;21.58;;;8.35;;
79227;SDS011;68658;46.174;11.254;2023-03-23T09:20:15;19.17;;;7.38;;
79227;SDS011;68658;46.174;11.254;2023-03-23T09:22:44;18.50;;;9.73;;
79227;SDS011;68658;46.174;11.254;2023-03-23T09:25:12;22.60;;;8.07;;
79227;SDS011;68658;46.174;11.254;2023-03-23T09:27:40;18.77;;;8.48;;
79227;SDS011;68658;46.174;11.254;2023-03-23T09:30:10;17.38;;;8.38;;
79227;SDS011;68658;46.174;11.254;2023-03-23T09:32:37;21.10;;;8.73;;
79227;SDS011;68658;46.174;11.254;2023-03-23T09:35:05;20.13;;;8.50;;
79227;SDS011;68658;46.174;11.254;2023-03-23T09:37:37;19.38;;;9.20;;
79227;SDS011;68658;46.174;11.254;2023-03-23T09:40:04;19.45;;;7.43;;
79227;SDS011;68658;46.174;11.254;2023-03-23T09:50:54;18.00;;;8.38;;
79227;SDS011;68658;46.174;11.254;2023-03-23T09:53:31;19.83;;;8.00;;
79227;SDS011;68658;46.174;11.254;2023-03-23T09:56:02;19.67;;;8.18;;
79227;SDS011;68658;46.174;11.254;2023-03-23T09:58:47;17.42;;;6.90;;
79227;SDS011;68658;46.174;11.254;2023-03-23T10:01:22;20.27;;;8.50;;
79227;SDS011;68658;46.174;11.254;2023-03-23T10:03:59;21.83;;;8.70;;
79227;SDS011;68658;46.174;11.254;2023-03-23T10:06:32;20.42;;;7.88;;
79227;SDS011;68658;46.174;11.254;2023-03-23T10:08:58;19.15;;;8.13;;
79227;SDS011;68658;46.174;11.254;2023-03-23T10:11:45;18.50;;;8.02;;
79227;SDS011;68658;46.174;11.254;2023-03-23T10:22:55;19.00;;;7.85;;
79227;SDS011;68658;46.174;11.254;2023-03-23T10:25:35;18.65;;;6.97;;
79227;SDS011;68658;46.174;11.254;2023-03-23T10:28:08;16.30;;;7.00;;
79227;SDS011;68658;46.174;11.254;2023-03-23T10:33:23;18.33;;;7.53;;
79227;SDS011;68658;46.174;11.254;2023-03-23T10:36:24;23.73;;;8.02;;
79227;SDS011;68658;46.174;11.254;2023-03-23T10:41:28;16.95;;;7.80;;
79227;SDS011;68658;46.174;11.254;2023-03-23T10:43:55;21.08;;;8.05;;
79227;SDS011;68658;46.174;11.254;2023-03-23T10:49:10;17.77;;;7.35;;
79227;SDS011;68658;46.174;11.254;2023-03-23T10:51:41;16.20;;;7.30;;
79227;SDS011;68658;46.174;11.254;2023-03-23T10:54:24;17.70;;;6.80;;
79227;SDS011;68658;46.174;11.254;2023-03-23T10:56:52;16.13;;;6.75;;
79227;SDS011;68658;46.174;11.254;2023-03-23T10:59:25;16.23;;;7.53;;
79227;SDS011;68658;46.174;11.254;2023-03-23T11:01:53;16.60;;;7.32;;
79227;SDS011;68658;46.174;11.254;2023-03-23T11:04:21;19.33;;;6.50;;
79227;SDS011;68658;46.174;11.254;2023-03-23T11:06:48;15.10;;;6.05;;
79227;SDS011;68658;46.174;11.254;2023-03-23T11:09:21;17.15;;;6.22;;
79227;SDS011;68658;46.174;11.254;2023-03-23T11:11:57;18.70;;;5.38;;
79227;SDS011;68658;46.174;11.254;2023-03-23T11:14:34;11.65;;;5.15;;
79227;SDS011;68658;46.174;11.254;2023-03-23T11:17:04;16.50;;;5.65;;
79227;SDS011;68658;46.174;11.254;2023-03-23T11:19:44;17.20;;;5.97;;
79227;SDS011;68658;46.174;11.254;2023-03-23T11:22:15;13.75;;;5.32;;
79227;SDS011;68658;46.174;11.254;2023-03-23T11:24:45;13.73;;;5.38;;
79227;SDS011;68658;46.174;11.254;2023-03-23T11:27:13;13.73;;;5.50;;
79227;SDS011;68658;46.174;11.254;2023-03-23T11:29:53;12.07;;;5.18;;
79227;SDS011;68658;46.174;11.254;2023-03-23T11:32:23;12.50;;;4.53;;
79227;SDS011;68658;46.174;11.254;2023-03-23T11:34:54;16.20;;;5.60;;
79227;SDS011;68658;46.174;11.254;2023-03-23T11:37:34;15.65;;;5.07;;
79227;SDS011;68658;46.174;11.254;2023-03-23T11:42:43;14.20;;;5.25;;
79227;SDS011;68658;46.174;11.254;2023-03-23T11:45:25;14.73;;;6.05;;
79227;SDS011;68658;46.174;11.254;2023-03-23T11:53:23;14.40;;;4.80;;
79227;SDS011;68658;46.174;11.254;2023-03-23T11:58:30;17.90;;;6.05;;
79227;SDS011;68658;46.174;11.254;2023-03-23T12:03:53;12.98;;;5.80;;
79227;SDS011;68658;46.174;11.254;2023-03-23T12:06:58;11.70;;;5.60;;
79227;SDS011;68658;46.174;11.254;2023-03-23T12:15:24;12.57;;;4.40;;
79227;SDS011;68658;46.174;11.254;2023-03-23T12:23:49;14.00;;;5.53;;
79227;SDS011;68658;46.174;11.254;2023-03-23T12:26:28;11.20;;;4.30;;
79227;SDS011;68658;46.174;11.254;2023-03-23T12:29:00;12.57;;;5.18;;
79227;SDS011;68658;46.174;11.254;2023-03-23T12:31:55;10.18;;;4.18;;
79227;SDS011;68658;46.174;11.254;2023-03-23T12:34:53;12.77;;;4.32;;
79227;SDS011;68658;46.174;11.254;2023-03-23T12:40:19;9.65;;;3.88;;
79227;SDS011;68658;46.174;11.254;2023-03-23T12:43:13;11.98;;;3.95;;
79227;SDS011;68658;46.174;11.254;2023-03-23T12:48:40;10.77;;;4.53;;
79227;SDS011;68658;46.174;11.254;2023-03-23T12:51:14;11.23;;;4.10;;
79227;SDS011;68658;46.174;11.254;2023-03-23T12:56:26;8.68;;;4.07;;
79227;SDS011;68658;46.174;11.254;2023-03-23T12:59:28;11.25;;;4.32;;
79227;SDS011;68658;46.174;11.254;2023-03-23T13:02:19;10.27;;;4.10;;
79227;SDS011;68658;46.174;11.254;2023-03-23T13:07:49;11.88;;;5.05;;
79227;SDS011;68658;46.174;11.254;2023-03-23T13:10:28;11.77;;;4.40;;
79227;SDS011;68658;46.174;11.254;2023-03-23T13:12:58;13.75;;;4.25;;
79227;SDS011;68658;46.174;11.254;2023-03-23T13:26:32;13.90;;;5.53;;
79227;SDS011;68658;46.174;11.254;2023-03-23T13:29:18;12.02;;;4.35;;
79227;SDS011;68658;46.174;11.254;2023-03-23T13:31:45;12.20;;;5.57;;
79227;SDS011;68658;46.174;11.254;2023-03-23T13:36:42;11.82;;;4.55;;
79227;SDS011;68658;46.174;11.254;2023-03-23T13:47:37;13.73;;;6.28;;
79227;SDS011;68658;46.174;11.254;2023-03-23T13:57:51;13.15;;;6.30;;
79227;SDS011;68658;46.174;11.254;2023-03-23T14:02:51;16.33;;;6.90;;
79227;SDS011;68658;46.174;11.254;2023-03-23T14:10:35;18.42;;;6.55;;
79227;SDS011;68658;46.174;11.254;2023-03-23T14:13:05;13.75;;;7.10;;
79227;SDS011;68658;46.174;11.254;2023-03-23T14:15:43;13.93;;;6.85;;
79227;SDS011;68658;46.174;11.254;2023-03-23T14:18:13;15.00;;;6.38;;
79227;SDS011;68658;46.174;11.254;2023-03-23T14:20:41;15.48;;;6.25;;
79227;SDS011;68658;46.174;11.254;2023-03-23T14:23:18;16.90;;;6.82;;
79227;SDS011;68658;46.174;11.254;2023-03-23T14:25:44;14.13;;;6.95;;
79227;SDS011;68658;46.174;11.254;2023-03-23T14:28:19;11.68;;;6.03;;
79227;SDS011;68658;46.174;11.254;2023-03-23T14:30:47;12.52;;;6.38;;
79227;SDS011;68658;46.174;11.254;2023-03-23T14:33:17;14.45;;;6.40;;
79227;SDS011;68658;46.174;11.254;2023-03-23T14:35:44;11.98;;;5.45;;
79227;SDS011;68658;46.174;11.254;2023-03-23T14:38:15;15.38;;;6.55;;
79227;SDS011;68658;46.174;11.254;2023-03-23T14:40:45;16.30;;;7.55;;
79227;SDS011;68658;46.174;11.254;2023-03-23T14:43:11;14.30;;;7.05;;
79227;SDS011;68658;46.174;11.254;2023-03-23T14:45:40;16.75;;;6.28;;
79227;SDS011;68658;46.174;11.254;2023-03-23T14:48:06;15.13;;;6.95;;
79227;SDS011;68658;46.174;11.254;2023-03-23T14:50:39;15.45;;;6.25;;
79227;SDS011;68658;46.174;11.254;2023-03-23T14:53:11;15.73;;;6.93;;
79227;SDS011;68658;46.174;11.254;2023-03-23T14:55:46;17.95;;;7.65;;
79227;SDS011;68658;46.174;11.254;2023-03-23T14:58:13;14.43;;;6.10;;
79227;SDS011;68658;46.174;11.254;2023-03-23T15:00:43;12.75;;;6.72;;
79227;SDS011;68658;46.174;11.254;2023-03-23T15:03:13;16.85;;;6.88;;
79227;SDS011;68658;46.174;11.254;2023-03-23T15:05:49;17.13;;;6.78;;
79227;SDS011;68658;46.174;11.254;2023-03-23T15:08:24;17.63;;;7.85;;
79227;SDS011;68658;46.174;11.254;2023-03-23T15:11:11;15.82;;;6.78;;
79227;SDS011;68658;46.174;11.254;2023-03-23T15:13:54;14.80;;;6.90;;
79227;SDS011;68658;46.174;11.254;2023-03-23T15:19:15;19.17;;;7.90;;
79227;SDS011;68658;46.174;11.254;2023-03-23T15:21:53;20.73;;;7.82;;
79227;SDS011;68658;46.174;11.254;2023-03-23T15:24:41;17.92;;;7.07;;
79227;SDS011;68658;46.174;11.254;2023-03-23T15:27:14;17.50;;;7.38;;
79227;SDS011;68658;46.174;11.254;2023-03-23T15:33:02;18.40;;;7.43;;
79227;SDS011;68658;46.174;11.254;2023-03-23T15:35:38;16.08;;;7.40;;
79227;SDS011;68658;46.174;11.254;2023-03-23T15:38:18;20.05;;;6.88;;
79227;SDS011;68658;46.174;11.254;2023-03-23T15:40:56;15.85;;;6.40;;
79227;SDS011;68658;46.174;11.254;2023-03-23T15:43:32;22.20;;;7.75;;
79227;SDS011;68658;46.174;11.254;2023-03-23T15:46:01;16.58;;;6.47;;
79227;SDS011;68658;46.174;11.254;2023-03-23T15:48:31;14.93;;;6.25;;
79227;SDS011;68658;46.174;11.254;2023-03-23T15:50:59;14.93;;;6.65;;
79227;SDS011;68658;46.174;11.254;2023-03-23T15:53:32;17.15;;;7.20;;
79227;SDS011;68658;46.174;11.254;2023-03-23T15:56:00;14.00;;;6.15;;
79227;SDS011;68658;46.174;11.254;2023-03-23T15:58:27;14.90;;;6.18;;
79227;SDS011;68658;46.174;11.254;2023-03-23T16:00:54;17.35;;;6.35;;
79227;SDS011;68658;46.174;11.254;2023-03-23T16:03:23;16.67;;;6.22;;
79227;SDS011;68658;46.174;11.254;2023-03-23T16:06:10;17.08;;;7.05;;
79227;SDS011;68658;46.174;11.254;2023-03-23T16:08:37;15.52;;;5.13;;
79227;SDS011;68658;46.174;11.254;2023-03-23T16:11:05;18.13;;;7.32;;
79227;SDS011;68658;46.174;11.254;2023-03-23T16:13:33;13.55;;;6.45;;
79227;SDS011;68658;46.174;11.254;2023-03-23T16:15:58;16.35;;;7.22;;
79227;SDS011;68658;46.174;11.254;2023-03-23T16:18:24;22.58;;;8.27;;
79227;SDS011;68658;46.174;11.254;2023-03-23T16:20:50;17.20;;;6.43;;
79227;SDS011;68658;46.174;11.254;2023-03-23T16:23:16;16.10;;;7.18;;
79227;SDS011;68658;46.174;11.254;2023-03-23T16:25:42;17.65;;;7.15;;
79227;SDS011;68658;46.174;11.254;2023-03-23T16:28:10;17.70;;;6.35;;
79227;SDS011;68658;46.174;11.254;2023-03-23T16:30:42;18.00;;;6.13;;
79227;SDS011;68658;46.174;11.254;2023-03-23T16:33:09;16.85;;;5.40;;
79227;SDS011;68658;46.174;11.254;2023-03-23T16:35:35;18.08;;;6.13;;
79227;SDS011;68658;46.174;11.254;2023-03-23T16:38:02;17.38;;;6.60;;
79227;SDS011;68658;46.174;11.254;2023-03-23T16:40:28;12.98;;;6.18;;